sensor_id;sensor_type;location;lat;lon;timestamp;P1;durP1;ratioP1;P2;durP2;ratioP2
56653;SDS011;45096;52.302;4.634;2023-03-31T00:01:11;13.43;;;4.13;;
56653;SDS011;45096;52.302;4.634;2023-03-31T00:03:36;16.52;;;3.70;;
56653;SDS011;45096;52.302;4.634;2023-03-31T00:06:04;15.00;;;4.03;;
56653;SDS011;45096;52.302;4.634;2023-03-31T00:08:30;12.77;;;3.83;;
56653;SDS011;45096;52.302;4.634;2023-03-31T00:10:57;14.80;;;3.80;;
56653;SDS011;45096;52.302;4.634;2023-03-31T00:13:23;12.55;;;3.58;;
56653;SDS011;45096;52.302;4.634;2023-03-31T00:15:48;8.57;;;3.08;;
56653;SDS011;45096;52.302;4.634;2023-03-31T00:18:14;10.70;;;3.72;;
56653;SDS011;45096;52.302;4.634;2023-03-31T00:20:39;11.65;;;3.35;;
56653;SDS011;45096;52.302;4.634;2023-03-31T00:23:06;11.98;;;3.97;;
56653;SDS011;45096;52.302;4.634;2023-03-31T00:25:31;14.55;;;3.42;;
56653;SDS011;45096;52.302;4.634;2023-03-31T00:27:57;10.93;;;3.90;;
56653;SDS011;45096;52.302;4.634;2023-03-31T00:30:22;12.52;;;3.60;;
56653;SDS011;45096;52.302;4.634;2023-03-31T00:32:48;14.85;;;3.83;;
56653;SDS011;45096;52.302;4.634;2023-03-31T00:35:13;13.23;;;3.97;;
56653;SDS011;45096;52.302;4.634;2023-03-31T00:37:39;9.73;;;3.45;;
56653;SDS011;45096;52.302;4.634;2023-03-31T00:40:06;7.85;;;3.30;;
56653;SDS011;45096;52.302;4.634;2023-03-31T00:42:32;10.60;;;3.40;;
56653;SDS011;45096;52.302;4.634;2023-03-31T00:47:48;9.73;;;2.63;;
56653;SDS011;45096;52.302;4.634;2023-03-31T00:50:16;14.18;;;3.70;;
56653;SDS011;45096;52.302;4.634;2023-03-31T00:52:44;15.75;;;3.53;;
56653;SDS011;45096;52.302;4.634;2023-03-31T00:55:13;17.92;;;3.80;;
56653;SDS011;45096;52.302;4.634;2023-03-31T00:57:40;8.30;;;3.33;;
56653;SDS011;45096;52.302;4.634;2023-03-31T01:00:07;7.82;;;2.70;;
56653;SDS011;45096;52.302;4.634;2023-03-31T01:02:36;9.88;;;3.08;;
56653;SDS011;45096;52.302;4.634;2023-03-31T01:05:02;15.15;;;3.35;;
56653;SDS011;45096;52.302;4.634;2023-03-31T01:07:28;11.43;;;2.90;;
56653;SDS011;45096;52.302;4.634;2023-03-31T01:09:57;6.70;;;2.97;;
56653;SDS011;45096;52.302;4.634;2023-03-31T01:12:25;10.93;;;2.88;;
56653;SDS011;45096;52.302;4.634;2023-03-31T01:14:51;7.00;;;3.15;;
56653;SDS011;45096;52.302;4.634;2023-03-31T01:17:16;7.75;;;2.85;;
56653;SDS011;45096;52.302;4.634;2023-03-31T01:19:51;12.25;;;3.10;;
56653;SDS011;45096;52.302;4.634;2023-03-31T01:22:43;10.52;;;3.67;;
56653;SDS011;45096;52.302;4.634;2023-03-31T01:25:25;11.52;;;3.20;;
56653;SDS011;45096;52.302;4.634;2023-03-31T01:28:07;10.63;;;3.22;;
56653;SDS011;45096;52.302;4.634;2023-03-31T01:30:45;8.50;;;2.63;;
56653;SDS011;45096;52.302;4.634;2023-03-31T01:36:34;7.53;;;2.33;;
56653;SDS011;45096;52.302;4.634;2023-03-31T01:42:22;7.55;;;3.33;;
56653;SDS011;45096;52.302;4.634;2023-03-31T01:44:53;7.15;;;2.90;;
56653;SDS011;45096;52.302;4.634;2023-03-31T01:47:25;6.32;;;2.92;;
56653;SDS011;45096;52.302;4.634;2023-03-31T01:49:54;5.22;;;2.22;;
56653;SDS011;45096;52.302;4.634;2023-03-31T01:52:21;6.55;;;2.55;;
56653;SDS011;45096;52.302;4.634;2023-03-31T01:54:48;4.95;;;2.38;;
56653;SDS011;45096;52.302;4.634;2023-03-31T01:57:17;7.13;;;3.03;;
56653;SDS011;45096;52.302;4.634;2023-03-31T01:59:48;5.47;;;2.75;;
56653;SDS011;45096;52.302;4.634;2023-03-31T02:02:19;6.88;;;2.40;;
56653;SDS011;45096;52.302;4.634;2023-03-31T02:04:46;7.60;;;3.05;;
56653;SDS011;45096;52.302;4.634;2023-03-31T02:07:13;9.25;;;2.80;;
56653;SDS011;45096;52.302;4.634;2023-03-31T02:09:41;6.47;;;2.72;;
56653;SDS011;45096;52.302;4.634;2023-03-31T02:12:09;12.23;;;3.17;;
56653;SDS011;45096;52.302;4.634;2023-03-31T02:14:37;8.10;;;3.10;;
56653;SDS011;45096;52.302;4.634;2023-03-31T02:17:05;9.48;;;3.20;;
56653;SDS011;45096;52.302;4.634;2023-03-31T02:19:32;9.18;;;3.42;;
56653;SDS011;45096;52.302;4.634;2023-03-31T02:21:59;5.43;;;2.58;;
56653;SDS011;45096;52.302;4.634;2023-03-31T02:24:26;5.00;;;2.42;;
56653;SDS011;45096;52.302;4.634;2023-03-31T02:26:52;3.40;;;2.45;;
56653;SDS011;45096;52.302;4.634;2023-03-31T02:29:21;8.32;;;2.72;;
56653;SDS011;45096;52.302;4.634;2023-03-31T02:31:48;4.65;;;2.22;;
56653;SDS011;45096;52.302;4.634;2023-03-31T02:34:17;4.53;;;2.35;;
56653;SDS011;45096;52.302;4.634;2023-03-31T02:36:43;6.15;;;2.65;;
56653;SDS011;45096;52.302;4.634;2023-03-31T02:39:10;5.55;;;2.78;;
56653;SDS011;45096;52.302;4.634;2023-03-31T02:41:38;9.80;;;2.65;;
56653;SDS011;45096;52.302;4.634;2023-03-31T02:44:04;8.20;;;3.00;;
56653;SDS011;45096;52.302;4.634;2023-03-31T02:46:29;3.33;;;2.50;;
56653;SDS011;45096;52.302;4.634;2023-03-31T02:48:57;2.60;;;2.20;;
56653;SDS011;45096;52.302;4.634;2023-03-31T02:54:34;8.93;;;2.75;;
56653;SDS011;45096;52.302;4.634;2023-03-31T02:57:15;4.97;;;2.72;;
56653;SDS011;45096;52.302;4.634;2023-03-31T02:59:47;6.03;;;2.50;;
56653;SDS011;45096;52.302;4.634;2023-03-31T03:02:17;6.45;;;2.33;;
56653;SDS011;45096;52.302;4.634;2023-03-31T03:04:53;4.03;;;2.90;;
56653;SDS011;45096;52.302;4.634;2023-03-31T03:07:24;5.97;;;2.58;;
56653;SDS011;45096;52.302;4.634;2023-03-31T03:09:57;5.28;;;2.60;;
56653;SDS011;45096;52.302;4.634;2023-03-31T03:12:26;3.65;;;2.30;;
56653;SDS011;45096;52.302;4.634;2023-03-31T03:14:58;10.35;;;2.72;;
56653;SDS011;45096;52.302;4.634;2023-03-31T03:17:25;3.17;;;2.30;;
56653;SDS011;45096;52.302;4.634;2023-03-31T03:19:55;6.75;;;3.38;;
56653;SDS011;45096;52.302;4.634;2023-03-31T03:22:21;4.03;;;2.63;;
56653;SDS011;45096;52.302;4.634;2023-03-31T03:24:47;8.80;;;3.03;;
56653;SDS011;45096;52.302;4.634;2023-03-31T03:27:12;7.85;;;3.13;;
56653;SDS011;45096;52.302;4.634;2023-03-31T03:29:38;7.82;;;3.13;;
56653;SDS011;45096;52.302;4.634;2023-03-31T03:32:03;5.18;;;2.70;;
56653;SDS011;45096;52.302;4.634;2023-03-31T03:34:29;4.78;;;2.80;;
56653;SDS011;45096;52.302;4.634;2023-03-31T03:36:56;6.00;;;2.72;;
56653;SDS011;45096;52.302;4.634;2023-03-31T03:39:21;5.70;;;2.75;;
56653;SDS011;45096;52.302;4.634;2023-03-31T03:41:47;6.93;;;3.25;;
56653;SDS011;45096;52.302;4.634;2023-03-31T03:44:12;5.38;;;3.47;;
56653;SDS011;45096;52.302;4.634;2023-03-31T03:46:38;5.35;;;2.78;;
56653;SDS011;45096;52.302;4.634;2023-03-31T03:49:03;8.70;;;2.85;;
56653;SDS011;45096;52.302;4.634;2023-03-31T03:51:29;7.70;;;3.00;;
56653;SDS011;45096;52.302;4.634;2023-03-31T03:53:55;7.15;;;3.65;;
56653;SDS011;45096;52.302;4.634;2023-03-31T03:56:21;6.88;;;4.68;;
56653;SDS011;45096;52.302;4.634;2023-03-31T03:58:46;8.35;;;5.43;;
56653;SDS011;45096;52.302;4.634;2023-03-31T04:01:12;16.23;;;11.05;;
56653;SDS011;45096;52.302;4.634;2023-03-31T04:03:37;11.77;;;6.20;;
56653;SDS011;45096;52.302;4.634;2023-03-31T04:06:03;8.85;;;5.10;;
56653;SDS011;45096;52.302;4.634;2023-03-31T04:08:28;6.75;;;4.80;;
56653;SDS011;45096;52.302;4.634;2023-03-31T04:10:55;9.57;;;5.13;;
56653;SDS011;45096;52.302;4.634;2023-03-31T04:13:21;8.07;;;4.95;;
56653;SDS011;45096;52.302;4.634;2023-03-31T04:15:46;5.85;;;4.35;;
56653;SDS011;45096;52.302;4.634;2023-03-31T04:18:12;7.43;;;4.25;;
56653;SDS011;45096;52.302;4.634;2023-03-31T04:20:37;6.78;;;4.30;;
56653;SDS011;45096;52.302;4.634;2023-03-31T04:23:02;5.97;;;3.58;;
56653;SDS011;45096;52.302;4.634;2023-03-31T04:25:28;6.80;;;3.88;;
56653;SDS011;45096;52.302;4.634;2023-03-31T04:27:55;6.80;;;3.58;;
56653;SDS011;45096;52.302;4.634;2023-03-31T04:30:20;4.50;;;3.60;;
56653;SDS011;45096;52.302;4.634;2023-03-31T04:32:46;7.30;;;3.90;;
56653;SDS011;45096;52.302;4.634;2023-03-31T04:35:12;3.50;;;3.20;;
56653;SDS011;45096;52.302;4.634;2023-03-31T04:37:37;7.78;;;3.28;;
56653;SDS011;45096;52.302;4.634;2023-03-31T04:40:03;5.72;;;3.28;;
56653;SDS011;45096;52.302;4.634;2023-03-31T04:42:29;5.47;;;3.20;;
56653;SDS011;45096;52.302;4.634;2023-03-31T04:44:56;4.97;;;3.45;;
56653;SDS011;45096;52.302;4.634;2023-03-31T04:47:21;5.47;;;3.20;;
56653;SDS011;45096;52.302;4.634;2023-03-31T04:49:47;5.18;;;2.90;;
56653;SDS011;45096;52.302;4.634;2023-03-31T04:52:12;3.88;;;3.13;;
56653;SDS011;45096;52.302;4.634;2023-03-31T04:54:38;5.15;;;3.47;;
56653;SDS011;45096;52.302;4.634;2023-03-31T04:57:03;6.15;;;3.95;;
56653;SDS011;45096;52.302;4.634;2023-03-31T04:59:28;6.88;;;3.78;;
56653;SDS011;45096;52.302;4.634;2023-03-31T05:01:55;5.53;;;3.88;;
56653;SDS011;45096;52.302;4.634;2023-03-31T05:04:21;4.93;;;3.70;;
56653;SDS011;45096;52.302;4.634;2023-03-31T05:06:46;7.93;;;4.03;;
56653;SDS011;45096;52.302;4.634;2023-03-31T05:09:12;4.82;;;3.67;;
56653;SDS011;45096;52.302;4.634;2023-03-31T05:11:37;4.72;;;4.00;;
56653;SDS011;45096;52.302;4.634;2023-03-31T05:14:03;5.88;;;2.85;;
56653;SDS011;45096;52.302;4.634;2023-03-31T05:16:28;7.95;;;3.75;;
56653;SDS011;45096;52.302;4.634;2023-03-31T05:18:55;4.03;;;3.05;;
56653;SDS011;45096;52.302;4.634;2023-03-31T05:21:20;7.70;;;3.28;;
56653;SDS011;45096;52.302;4.634;2023-03-31T05:23:46;7.10;;;3.35;;
56653;SDS011;45096;52.302;4.634;2023-03-31T05:26:12;5.68;;;3.53;;
56653;SDS011;45096;52.302;4.634;2023-03-31T05:28:38;4.22;;;2.95;;
56653;SDS011;45096;52.302;4.634;2023-03-31T05:31:05;5.20;;;3.13;;
56653;SDS011;45096;52.302;4.634;2023-03-31T05:33:31;5.97;;;3.20;;
56653;SDS011;45096;52.302;4.634;2023-03-31T05:35:58;6.10;;;3.10;;
56653;SDS011;45096;52.302;4.634;2023-03-31T05:38:24;5.72;;;2.72;;
56653;SDS011;45096;52.302;4.634;2023-03-31T05:40:49;5.07;;;2.92;;
56653;SDS011;45096;52.302;4.634;2023-03-31T05:43:15;6.85;;;2.88;;
56653;SDS011;45096;52.302;4.634;2023-03-31T05:45:40;4.25;;;2.67;;
56653;SDS011;45096;52.302;4.634;2023-03-31T05:48:06;3.13;;;2.55;;
56653;SDS011;45096;52.302;4.634;2023-03-31T05:50:31;4.88;;;2.50;;
56653;SDS011;45096;52.302;4.634;2023-03-31T05:52:58;6.00;;;3.80;;
56653;SDS011;45096;52.302;4.634;2023-03-31T05:55:23;5.38;;;3.08;;
56653;SDS011;45096;52.302;4.634;2023-03-31T05:57:49;5.22;;;3.88;;
56653;SDS011;45096;52.302;4.634;2023-03-31T06:00:14;6.07;;;4.13;;
56653;SDS011;45096;52.302;4.634;2023-03-31T06:02:40;5.53;;;3.55;;
56653;SDS011;45096;52.302;4.634;2023-03-31T06:05:06;6.32;;;4.00;;
56653;SDS011;45096;52.302;4.634;2023-03-31T06:07:32;6.82;;;3.08;;
56653;SDS011;45096;52.302;4.634;2023-03-31T06:09:58;3.30;;;2.97;;
56653;SDS011;45096;52.302;4.634;2023-03-31T06:12:24;4.47;;;3.22;;
56653;SDS011;45096;52.302;4.634;2023-03-31T06:14:49;4.88;;;3.60;;
56653;SDS011;45096;52.302;4.634;2023-03-31T06:17:15;7.00;;;3.83;;
56653;SDS011;45096;52.302;4.634;2023-03-31T06:19:40;4.90;;;2.85;;
56653;SDS011;45096;52.302;4.634;2023-03-31T06:22:05;5.10;;;2.88;;
56653;SDS011;45096;52.302;4.634;2023-03-31T06:24:31;5.38;;;2.90;;
56653;SDS011;45096;52.302;4.634;2023-03-31T06:26:58;3.47;;;2.70;;
56653;SDS011;45096;52.302;4.634;2023-03-31T06:29:23;4.72;;;2.47;;
56653;SDS011;45096;52.302;4.634;2023-03-31T06:31:49;4.07;;;2.92;;
56653;SDS011;45096;52.302;4.634;2023-03-31T06:34:14;8.85;;;3.72;;
56653;SDS011;45096;52.302;4.634;2023-03-31T06:36:39;7.65;;;3.95;;
56653;SDS011;45096;52.302;4.634;2023-03-31T06:39:05;4.82;;;3.90;;
56653;SDS011;45096;52.302;4.634;2023-03-31T06:41:30;3.95;;;2.95;;
56653;SDS011;45096;52.302;4.634;2023-03-31T06:43:57;4.15;;;3.03;;
56653;SDS011;45096;52.302;4.634;2023-03-31T06:46:22;2.75;;;2.55;;
56653;SDS011;45096;52.302;4.634;2023-03-31T06:48:48;5.40;;;3.10;;
56653;SDS011;45096;52.302;4.634;2023-03-31T06:51:13;6.50;;;2.95;;
56653;SDS011;45096;52.302;4.634;2023-03-31T06:53:39;6.07;;;2.63;;
56653;SDS011;45096;52.302;4.634;2023-03-31T06:56:05;4.28;;;2.45;;
56653;SDS011;45096;52.302;4.634;2023-03-31T06:58:31;4.13;;;2.15;;
56653;SDS011;45096;52.302;4.634;2023-03-31T07:00:57;2.38;;;2.10;;
56653;SDS011;45096;52.302;4.634;2023-03-31T07:03:23;3.00;;;1.83;;
56653;SDS011;45096;52.302;4.634;2023-03-31T07:05:49;3.35;;;2.50;;
56653;SDS011;45096;52.302;4.634;2023-03-31T07:08:14;2.88;;;2.00;;
56653;SDS011;45096;52.302;4.634;2023-03-31T07:10:40;2.25;;;1.60;;
56653;SDS011;45096;52.302;4.634;2023-03-31T07:13:05;3.13;;;2.15;;
56653;SDS011;45096;52.302;4.634;2023-03-31T07:15:31;3.17;;;2.65;;
56653;SDS011;45096;52.302;4.634;2023-03-31T07:17:57;4.72;;;2.00;;
56653;SDS011;45096;52.302;4.634;2023-03-31T07:20:23;3.42;;;1.85;;
56653;SDS011;45096;52.302;4.634;2023-03-31T07:22:48;3.17;;;1.65;;
56653;SDS011;45096;52.302;4.634;2023-03-31T07:25:14;2.50;;;1.63;;
56653;SDS011;45096;52.302;4.634;2023-03-31T07:27:41;2.15;;;1.95;;
56653;SDS011;45096;52.302;4.634;2023-03-31T07:30:07;2.50;;;1.70;;
56653;SDS011;45096;52.302;4.634;2023-03-31T07:32:34;2.92;;;1.70;;
56653;SDS011;45096;52.302;4.634;2023-03-31T07:35:01;2.40;;;2.03;;
56653;SDS011;45096;52.302;4.634;2023-03-31T07:37:26;2.05;;;1.88;;
56653;SDS011;45096;52.302;4.634;2023-03-31T07:39:52;3.58;;;1.80;;
56653;SDS011;45096;52.302;4.634;2023-03-31T07:42:17;1.90;;;1.48;;
56653;SDS011;45096;52.302;4.634;2023-03-31T07:44:43;1.95;;;1.20;;
56653;SDS011;45096;52.302;4.634;2023-03-31T07:47:08;2.60;;;1.70;;
56653;SDS011;45096;52.302;4.634;2023-03-31T07:49:34;1.67;;;1.45;;
56653;SDS011;45096;52.302;4.634;2023-03-31T07:52:01;1.67;;;1.58;;
56653;SDS011;45096;52.302;4.634;2023-03-31T07:54:26;3.33;;;1.70;;
56653;SDS011;45096;52.302;4.634;2023-03-31T07:56:52;4.72;;;2.25;;
56653;SDS011;45096;52.302;4.634;2023-03-31T07:59:17;1.83;;;1.73;;
56653;SDS011;45096;52.302;4.634;2023-03-31T08:01:43;1.58;;;1.30;;
56653;SDS011;45096;52.302;4.634;2023-03-31T08:04:08;3.05;;;1.90;;
56653;SDS011;45096;52.302;4.634;2023-03-31T08:06:34;3.85;;;1.90;;
56653;SDS011;45096;52.302;4.634;2023-03-31T08:09:01;3.88;;;2.63;;
56653;SDS011;45096;52.302;4.634;2023-03-31T08:11:27;3.08;;;1.80;;
56653;SDS011;45096;52.302;4.634;2023-03-31T08:13:52;2.72;;;1.85;;
56653;SDS011;45096;52.302;4.634;2023-03-31T08:16:18;2.03;;;1.92;;
56653;SDS011;45096;52.302;4.634;2023-03-31T08:18:43;4.57;;;2.40;;
56653;SDS011;45096;52.302;4.634;2023-03-31T08:21:09;3.63;;;2.28;;
56653;SDS011;45096;52.302;4.634;2023-03-31T08:23:34;4.50;;;2.63;;
56653;SDS011;45096;52.302;4.634;2023-03-31T08:26:08;6.85;;;3.47;;
56653;SDS011;45096;52.302;4.634;2023-03-31T08:28:34;5.00;;;3.22;;
56653;SDS011;45096;52.302;4.634;2023-03-31T08:31:01;6.75;;;3.28;;
56653;SDS011;45096;52.302;4.634;2023-03-31T08:33:27;5.97;;;3.63;;
56653;SDS011;45096;52.302;4.634;2023-03-31T08:35:53;4.38;;;3.08;;
56653;SDS011;45096;52.302;4.634;2023-03-31T08:38:18;7.75;;;3.50;;
56653;SDS011;45096;52.302;4.634;2023-03-31T08:40:43;7.03;;;3.08;;
56653;SDS011;45096;52.302;4.634;2023-03-31T08:43:11;7.15;;;2.97;;
56653;SDS011;45096;52.302;4.634;2023-03-31T08:45:50;7.50;;;2.75;;
56653;SDS011;45096;52.302;4.634;2023-03-31T08:48:18;6.93;;;2.88;;
56653;SDS011;45096;52.302;4.634;2023-03-31T08:50:47;6.13;;;2.60;;
56653;SDS011;45096;52.302;4.634;2023-03-31T08:53:18;6.88;;;2.60;;
56653;SDS011;45096;52.302;4.634;2023-03-31T08:55:46;3.85;;;2.72;;
56653;SDS011;45096;52.302;4.634;2023-03-31T08:58:17;5.70;;;3.00;;
56653;SDS011;45096;52.302;4.634;2023-03-31T09:00:53;4.95;;;2.70;;
56653;SDS011;45096;52.302;4.634;2023-03-31T09:03:25;4.85;;;2.35;;
56653;SDS011;45096;52.302;4.634;2023-03-31T09:05:55;5.85;;;2.60;;
56653;SDS011;45096;52.302;4.634;2023-03-31T09:08:30;8.57;;;3.25;;
56653;SDS011;45096;52.302;4.634;2023-03-31T09:10:57;3.67;;;2.47;;
56653;SDS011;45096;52.302;4.634;2023-03-31T09:13:37;5.15;;;2.80;;
56653;SDS011;45096;52.302;4.634;2023-03-31T09:16:20;6.60;;;2.60;;
56653;SDS011;45096;52.302;4.634;2023-03-31T09:18:48;8.52;;;3.05;;
56653;SDS011;45096;52.302;4.634;2023-03-31T09:21:16;7.70;;;3.58;;
56653;SDS011;45096;52.302;4.634;2023-03-31T09:23:45;5.65;;;3.33;;
56653;SDS011;45096;52.302;4.634;2023-03-31T09:26:17;9.85;;;2.90;;
56653;SDS011;45096;52.302;4.634;2023-03-31T09:28:48;8.30;;;3.15;;
56653;SDS011;45096;52.302;4.634;2023-03-31T09:31:16;8.63;;;3.00;;
56653;SDS011;45096;52.302;4.634;2023-03-31T09:33:44;5.60;;;3.88;;
56653;SDS011;45096;52.302;4.634;2023-03-31T09:36:12;12.05;;;5.32;;
56653;SDS011;45096;52.302;4.634;2023-03-31T09:38:39;8.25;;;4.05;;
56653;SDS011;45096;52.302;4.634;2023-03-31T09:41:06;11.38;;;3.78;;
56653;SDS011;45096;52.302;4.634;2023-03-31T09:43:32;9.93;;;3.35;;
56653;SDS011;45096;52.302;4.634;2023-03-31T09:45:59;8.93;;;3.88;;
56653;SDS011;45096;52.302;4.634;2023-03-31T09:48:26;10.70;;;3.63;;
56653;SDS011;45096;52.302;4.634;2023-03-31T09:50:55;10.98;;;3.88;;
56653;SDS011;45096;52.302;4.634;2023-03-31T09:53:23;7.88;;;2.97;;
56653;SDS011;45096;52.302;4.634;2023-03-31T09:55:53;6.00;;;3.17;;
56653;SDS011;45096;52.302;4.634;2023-03-31T09:58:24;6.13;;;2.85;;
56653;SDS011;45096;52.302;4.634;2023-03-31T10:00:57;8.80;;;2.65;;
56653;SDS011;45096;52.302;4.634;2023-03-31T10:03:25;9.52;;;3.33;;
56653;SDS011;45096;52.302;4.634;2023-03-31T10:05:52;6.55;;;3.25;;
56653;SDS011;45096;52.302;4.634;2023-03-31T10:08:20;5.82;;;2.80;;
56653;SDS011;45096;52.302;4.634;2023-03-31T10:10:48;12.88;;;4.90;;
56653;SDS011;45096;52.302;4.634;2023-03-31T10:13:15;9.38;;;3.13;;
56653;SDS011;45096;52.302;4.634;2023-03-31T10:15:41;7.28;;;2.80;;
56653;SDS011;45096;52.302;4.634;2023-03-31T10:18:10;9.30;;;2.78;;
56653;SDS011;45096;52.302;4.634;2023-03-31T10:20:38;7.38;;;3.17;;
56653;SDS011;45096;52.302;4.634;2023-03-31T10:23:14;8.95;;;2.67;;
56653;SDS011;45096;52.302;4.634;2023-03-31T10:25:40;12.35;;;3.17;;
56653;SDS011;45096;52.302;4.634;2023-03-31T10:28:09;9.05;;;3.20;;
56653;SDS011;45096;52.302;4.634;2023-03-31T10:30:36;9.02;;;2.80;;
56653;SDS011;45096;52.302;4.634;2023-03-31T10:33:03;7.50;;;3.08;;
56653;SDS011;45096;52.302;4.634;2023-03-31T10:35:32;7.00;;;2.95;;
56653;SDS011;45096;52.302;4.634;2023-03-31T10:38:00;5.95;;;3.55;;
56653;SDS011;45096;52.302;4.634;2023-03-31T10:40:28;11.32;;;4.03;;
56653;SDS011;45096;52.302;4.634;2023-03-31T10:42:58;8.27;;;3.08;;
56653;SDS011;45096;52.302;4.634;2023-03-31T10:45:26;10.27;;;3.45;;
56653;SDS011;45096;52.302;4.634;2023-03-31T10:47:53;11.90;;;3.67;;
56653;SDS011;45096;52.302;4.634;2023-03-31T10:50:28;11.65;;;3.38;;
56653;SDS011;45096;52.302;4.634;2023-03-31T10:53:01;12.45;;;4.57;;
56653;SDS011;45096;52.302;4.634;2023-03-31T10:55:28;12.45;;;5.47;;
56653;SDS011;45096;52.302;4.634;2023-03-31T10:57:59;10.88;;;4.97;;
56653;SDS011;45096;52.302;4.634;2023-03-31T11:00:28;6.70;;;3.67;;
56653;SDS011;45096;52.302;4.634;2023-03-31T11:03:12;10.02;;;3.38;;
56653;SDS011;45096;52.302;4.634;2023-03-31T11:05:48;6.93;;;2.90;;
56653;SDS011;45096;52.302;4.634;2023-03-31T11:08:19;8.07;;;2.83;;
56653;SDS011;45096;52.302;4.634;2023-03-31T11:10:52;8.00;;;2.65;;
56653;SDS011;45096;52.302;4.634;2023-03-31T11:13:25;7.97;;;2.63;;
56653;SDS011;45096;52.302;4.634;2023-03-31T11:15:55;6.68;;;2.25;;
56653;SDS011;45096;52.302;4.634;2023-03-31T11:18:35;4.20;;;2.70;;
56653;SDS011;45096;52.302;4.634;2023-03-31T11:21:14;5.72;;;2.47;;
56653;SDS011;45096;52.302;4.634;2023-03-31T11:23:48;5.60;;;2.70;;
56653;SDS011;45096;52.302;4.634;2023-03-31T11:26:17;6.57;;;2.85;;
56653;SDS011;45096;52.302;4.634;2023-03-31T11:28:51;5.35;;;2.63;;
56653;SDS011;45096;52.302;4.634;2023-03-31T11:31:25;4.78;;;2.30;;
56653;SDS011;45096;52.302;4.634;2023-03-31T11:34:03;5.65;;;2.85;;
56653;SDS011;45096;52.302;4.634;2023-03-31T11:36:38;5.40;;;2.25;;
56653;SDS011;45096;52.302;4.634;2023-03-31T11:39:16;6.25;;;3.05;;
56653;SDS011;45096;52.302;4.634;2023-03-31T11:41:49;6.43;;;2.25;;
56653;SDS011;45096;52.302;4.634;2023-03-31T11:44:17;5.75;;;2.72;;
56653;SDS011;45096;52.302;4.634;2023-03-31T11:46:45;8.45;;;2.70;;
56653;SDS011;45096;52.302;4.634;2023-03-31T11:49:14;6.60;;;2.40;;
56653;SDS011;45096;52.302;4.634;2023-03-31T11:51:43;8.40;;;2.65;;
56653;SDS011;45096;52.302;4.634;2023-03-31T11:54:16;8.20;;;2.22;;
56653;SDS011;45096;52.302;4.634;2023-03-31T11:56:42;5.93;;;2.25;;
56653;SDS011;45096;52.302;4.634;2023-03-31T11:59:08;4.75;;;2.30;;
56653;SDS011;45096;52.302;4.634;2023-03-31T12:01:36;5.40;;;2.03;;
56653;SDS011;45096;52.302;4.634;2023-03-31T12:04:08;3.55;;;2.53;;
56653;SDS011;45096;52.302;4.634;2023-03-31T12:06:38;6.72;;;2.33;;
56653;SDS011;45096;52.302;4.634;2023-03-31T12:09:07;4.60;;;2.25;;
56653;SDS011;45096;52.302;4.634;2023-03-31T12:11:39;6.22;;;2.70;;
56653;SDS011;45096;52.302;4.634;2023-03-31T12:14:10;5.97;;;2.22;;
56653;SDS011;45096;52.302;4.634;2023-03-31T12:16:44;5.32;;;2.45;;
56653;SDS011;45096;52.302;4.634;2023-03-31T12:19:12;3.20;;;2.10;;
56653;SDS011;45096;52.302;4.634;2023-03-31T12:21:42;3.60;;;1.65;;
56653;SDS011;45096;52.302;4.634;2023-03-31T12:24:09;6.18;;;2.67;;
56653;SDS011;45096;52.302;4.634;2023-03-31T12:26:39;3.22;;;1.80;;
56653;SDS011;45096;52.302;4.634;2023-03-31T12:29:12;2.40;;;1.55;;
56653;SDS011;45096;52.302;4.634;2023-03-31T12:31:44;3.03;;;1.67;;
56653;SDS011;45096;52.302;4.634;2023-03-31T12:34:11;3.65;;;2.00;;
56653;SDS011;45096;52.302;4.634;2023-03-31T12:36:42;8.15;;;2.42;;
56653;SDS011;45096;52.302;4.634;2023-03-31T12:39:19;2.65;;;1.85;;
56653;SDS011;45096;52.302;4.634;2023-03-31T12:41:57;6.07;;;2.47;;
56653;SDS011;45096;52.302;4.634;2023-03-31T12:44:36;2.13;;;1.92;;
56653;SDS011;45096;52.302;4.634;2023-03-31T12:47:11;6.47;;;2.17;;
56653;SDS011;45096;52.302;4.634;2023-03-31T12:49:46;4.80;;;2.13;;
56653;SDS011;45096;52.302;4.634;2023-03-31T12:52:17;4.65;;;1.88;;
56653;SDS011;45096;52.302;4.634;2023-03-31T12:54:55;5.63;;;2.20;;
56653;SDS011;45096;52.302;4.634;2023-03-31T12:57:27;3.42;;;2.15;;
56653;SDS011;45096;52.302;4.634;2023-03-31T13:02:43;2.25;;;1.90;;
56653;SDS011;45096;52.302;4.634;2023-03-31T13:08:10;3.10;;;1.90;;
56653;SDS011;45096;52.302;4.634;2023-03-31T13:10:59;7.88;;;3.05;;
56653;SDS011;45096;52.302;4.634;2023-03-31T13:13:26;8.60;;;4.45;;
56653;SDS011;45096;52.302;4.634;2023-03-31T13:15:52;6.20;;;4.10;;
56653;SDS011;45096;52.302;4.634;2023-03-31T13:18:19;5.28;;;3.15;;
56653;SDS011;45096;52.302;4.634;2023-03-31T13:20:45;7.78;;;2.97;;
56653;SDS011;45096;52.302;4.634;2023-03-31T13:23:15;8.73;;;2.90;;
56653;SDS011;45096;52.302;4.634;2023-03-31T13:25:42;5.90;;;3.13;;
56653;SDS011;45096;52.302;4.634;2023-03-31T13:28:16;7.00;;;2.90;;
56653;SDS011;45096;52.302;4.634;2023-03-31T13:30:56;4.80;;;2.80;;
56653;SDS011;45096;52.302;4.634;2023-03-31T13:33:26;3.53;;;2.30;;
56653;SDS011;45096;52.302;4.634;2023-03-31T13:35:58;6.70;;;2.63;;
56653;SDS011;45096;52.302;4.634;2023-03-31T13:38:42;4.32;;;2.63;;
56653;SDS011;45096;52.302;4.634;2023-03-31T13:41:14;4.40;;;2.15;;
56653;SDS011;45096;52.302;4.634;2023-03-31T13:44:06;2.42;;;2.22;;
56653;SDS011;45096;52.302;4.634;2023-03-31T13:49:46;4.53;;;2.10;;
56653;SDS011;45096;52.302;4.634;2023-03-31T13:52:17;2.75;;;2.47;;
56653;SDS011;45096;52.302;4.634;2023-03-31T13:54:54;7.00;;;2.45;;
56653;SDS011;45096;52.302;4.634;2023-03-31T14:00:44;5.53;;;2.10;;
56653;SDS011;45096;52.302;4.634;2023-03-31T14:03:16;3.22;;;2.53;;
56653;SDS011;45096;52.302;4.634;2023-03-31T14:05:47;3.30;;;2.08;;
56653;SDS011;45096;52.302;4.634;2023-03-31T14:08:18;1.77;;;1.67;;
56653;SDS011;45096;52.302;4.634;2023-03-31T14:10:44;2.80;;;2.10;;
56653;SDS011;45096;52.302;4.634;2023-03-31T14:13:10;6.43;;;3.08;;
56653;SDS011;45096;52.302;4.634;2023-03-31T14:15:37;18.45;;;13.05;;
56653;SDS011;45096;52.302;4.634;2023-03-31T14:18:06;9.80;;;7.25;;
56653;SDS011;45096;52.302;4.634;2023-03-31T14:20:34;6.90;;;4.93;;
56653;SDS011;45096;52.302;4.634;2023-03-31T14:23:08;8.73;;;4.78;;
56653;SDS011;45096;52.302;4.634;2023-03-31T14:25:43;5.47;;;4.03;;
56653;SDS011;45096;52.302;4.634;2023-03-31T14:28:16;4.55;;;3.85;;
56653;SDS011;45096;52.302;4.634;2023-03-31T14:30:52;3.95;;;3.58;;
56653;SDS011;45096;52.302;4.634;2023-03-31T14:33:27;4.57;;;3.67;;
56653;SDS011;45096;52.302;4.634;2023-03-31T14:35:59;3.22;;;2.83;;
56653;SDS011;45096;52.302;4.634;2023-03-31T14:38:28;3.72;;;2.65;;
56653;SDS011;45096;52.302;4.634;2023-03-31T14:40:54;4.47;;;2.90;;
56653;SDS011;45096;52.302;4.634;2023-03-31T14:43:20;6.30;;;3.15;;
56653;SDS011;45096;52.302;4.634;2023-03-31T14:45:51;4.47;;;2.80;;
56653;SDS011;45096;52.302;4.634;2023-03-31T14:48:21;2.17;;;2.05;;
56653;SDS011;45096;52.302;4.634;2023-03-31T14:50:48;5.65;;;2.88;;
56653;SDS011;45096;52.302;4.634;2023-03-31T14:53:14;4.18;;;2.30;;
56653;SDS011;45096;52.302;4.634;2023-03-31T14:55:46;7.30;;;3.65;;
56653;SDS011;45096;52.302;4.634;2023-03-31T14:58:13;9.75;;;7.95;;
56653;SDS011;45096;52.302;4.634;2023-03-31T15:00:42;5.68;;;4.70;;
56653;SDS011;45096;52.302;4.634;2023-03-31T15:03:08;3.63;;;3.13;;
56653;SDS011;45096;52.302;4.634;2023-03-31T15:05:37;3.95;;;3.50;;
56653;SDS011;45096;52.302;4.634;2023-03-31T15:08:04;7.35;;;3.90;;
56653;SDS011;45096;52.302;4.634;2023-03-31T15:10:32;3.53;;;2.85;;
56653;SDS011;45096;52.302;4.634;2023-03-31T15:13:01;6.30;;;3.30;;
56653;SDS011;45096;52.302;4.634;2023-03-31T15:15:31;4.78;;;3.05;;
56653;SDS011;45096;52.302;4.634;2023-03-31T15:17:57;5.03;;;3.60;;